Terminal Aerodrome Forecast
Issued by NWS

Home | Current Version | Previous Version | Graphics & Text | Print | Product List | Glossary On
Versions: 1 2 3 4 5 6 7 8 9 10 11 12 13 14 15 16 17 18 19 20 21 22 23
000
FTUS43 KMPX 260500 CCA
TAFRWF
TAF COR
KRWF 260535Z 2606/2706 13010KT 3SM -SN OVC015
     FM260900 11008KT 1 1/2SM -SN BR OVC012
     FM261700 34013G24KT 4SM -SN BLSN OVC012
     FM262000 32012G21KT 6SM BLSN BKN012
     FM270100 32012KT P6SM SKC=

USA.gov is the U.S. government's official web portal to all federal, state and local government web resources and services.